Time;durP1;ratioP1;P1;durP2;ratioP2;P2;SDS_P1;SDS_P2;PMS_P1;PMS_P2;Temp;Humidity;BMP_temperature;BMP_pressure;BME280_temperature;BME280_humidity;BME280_pressure;Samples;Min_cycle;Max_cycle;Signal;HPM_P1;HPM_P2
2022/04/26 03:38:05;;;;;;;13.38;10.30;;;;;;;9.16;nan;99127.88;5040075;28;20320;-76
2022/04/26 03:40:31;;;;;;;12.63;10.00;;;;;;;9.19;nan;99135.53;5030220;28;20354;-76
2022/04/26 03:42:56;;;;;;;12.53;9.50;;;;;;;9.24;nan;99143.94;5012317;28;20260;-76
2022/04/26 03:45:22;;;;;;;11.35;9.40;;;;;;;9.29;nan;99157.56;5024813;28;20474;-76
2022/04/26 03:47:49;;;;;;;15.80;11.50;;;;;;;9.32;nan;99157.38;5029366;28;20248;-76
2022/04/26 03:50:14;;;;;;;15.27;10.95;;;;;;;9.31;nan;99155.66;5034422;28;20202;-76
2022/04/26 03:52:40;;;;;;;13.00;10.57;;;;;;;9.29;nan;99152.34;5028178;28;20733;-76
2022/04/26 03:55:06;;;;;;;15.60;10.90;;;;;;;9.31;nan;99150.41;5032687;28;20214;-76
2022/04/26 03:57:31;;;;;;;14.02;10.82;;;;;;;9.29;nan;99144.47;5033178;28;20312;-76
2022/04/26 03:59:57;;;;;;;17.77;10.73;;;;;;;9.26;nan;99145.50;5028210;28;20347;-76
2022/04/26 04:02:23;;;;;;;18.15;14.43;;;;;;;9.28;nan;99142.75;5037190;28;20494;-76
2022/04/26 04:04:49;;;;;;;19.17;12.80;;;;;;;9.29;nan;99144.47;5034287;28;20571;-77
2022/04/26 04:07:14;;;;;;;16.02;12.05;;;;;;;9.31;nan;99150.41;5034931;28;20475;-76
2022/04/26 04:09:40;;;;;;;15.53;11.60;;;;;;;9.34;nan;99152.84;5038285;28;20547;-76
2022/04/26 04:12:06;;;;;;;14.07;10.70;;;;;;;9.36;nan;99158.00;5026582;28;20198;-76
2022/04/26 04:14:31;;;;;;;15.73;10.17;;;;;;;9.37;nan;99165.78;5032179;28;20221;-76
2022/04/26 04:16:57;;;;;;;14.70;11.80;;;;;;;9.37;nan;99171.00;5038344;28;20461;-76
2022/04/26 04:19:25;;;;;;;19.02;13.27;;;;;;;9.37;nan;99176.25;5036424;28;20241;-76
2022/04/26 04:21:51;;;;;;;16.60;11.95;;;;;;;9.39;nan;99171.72;5024847;28;20209;-76
2022/04/26 04:24:17;;;;;;;15.90;11.85;;;;;;;9.36;nan;99176.34;5037023;28;20214;-76
2022/04/26 04:26:43;;;;;;;17.25;12.43;;;;;;;9.31;nan;99179.25;5038223;28;20206;-76
2022/04/26 04:29:08;;;;;;;13.93;11.17;;;;;;;9.27;nan;99189.09;5034618;28;20241;-76
2022/04/26 04:31:34;;;;;;;14.97;11.37;;;;;;;9.26;nan;99189.19;5040120;28;20198;-76
2022/04/26 04:34:01;;;;;;;15.93;10.80;;;;;;;9.24;nan;99184.06;5041321;28;20205;-76
2022/04/26 04:36:27;;;;;;;18.77;13.02;;;;;;;9.25;nan;99183.13;5035602;28;20202;-76
2022/04/26 04:38:52;;;;;;;14.07;12.00;;;;;;;9.24;nan;99185.84;5039609;28;20291;-76
2022/04/26 04:41:18;;;;;;;19.33;13.47;;;;;;;9.24;nan;99185.84;5034859;28;20466;-77
2022/04/26 04:43:44;;;;;;;18.27;14.30;;;;;;;9.26;nan;99192.69;5038805;28;20245;-77
2022/04/26 04:46:10;;;;;;;22.23;17.35;;;;;;;9.31;nan;99200.22;5037754;28;20746;-77
2022/04/26 04:48:35;;;;;;;18.00;14.60;;;;;;;9.35;nan;99214.00;5037632;28;20313;-77
2022/04/26 04:51:01;;;;;;;15.48;13.30;;;;;;;9.33;nan;99208.84;5035190;28;20300;-77
2022/04/26 04:53:27;;;;;;;21.00;15.07;;;;;;;9.28;nan;99213.53;5035901;28;20280;-77
2022/04/26 04:55:52;;;;;;;22.60;14.90;;;;;;;9.26;nan;99205.78;5035334;28;20258;-78
2022/04/26 04:58:18;;;;;;;23.10;15.80;;;;;;;9.25;nan;99203.25;5036676;28;20229;-78
2022/04/26 05:00:43;;;;;;;25.40;18.17;;;;;;;9.26;nan;99208.41;5036553;28;20221;-78
2022/04/26 05:03:09;;;;;;;30.73;19.10;;;;;;;9.28;nan;99203.88;5033901;28;20202;-77
2022/04/26 05:05:35;;;;;;;19.00;13.70;;;;;;;9.31;nan;99216.78;5038062;28;20220;-78
2022/04/26 05:08:01;;;;;;;16.45;13.38;;;;;;;9.33;nan;99214.06;5034704;28;20700;-77
2022/04/26 05:10:29;;;;;;;17.85;14.30;;;;;;;9.33;nan;99216.69;5033839;28;20206;-77
2022/04/26 05:12:54;;;;;;;23.77;16.85;;;;;;;9.33;nan;99213.25;5040434;28;20210;-78
2022/04/26 05:15:20;;;;;;;18.73;15.37;;;;;;;9.29;nan;99210.81;5014327;28;20218;-77
2022/04/26 05:17:45;;;;;;;19.63;13.90;;;;;;;9.29;nan;99210.00;5033562;28;20253;-77
2022/04/26 05:20:11;;;;;;;20.10;14.50;;;;;;;9.27;nan;99209.25;5030572;28;20214;-78
2022/04/26 05:25:21;;;;;;;22.15;13.98;;;;;;;9.22;nan;99219.19;5037061;28;20205;-78
2022/04/26 05:27:47;;;;;;;18.50;13.57;;;;;;;9.23;nan;99218.22;5036942;28;20223;-77
2022/04/26 05:30:12;;;;;;;20.27;13.97;;;;;;;9.24;nan;99220.75;5032319;28;20589;-77
2022/04/26 05:32:38;;;;;;;19.80;14.17;;;;;;;9.27;nan;99217.94;5036595;28;20205;-78
2022/04/26 05:35:05;;;;;;;18.90;13.67;;;;;;;9.32;nan;99215.03;5036198;28;20633;-77
2022/04/26 05:37:33;;;;;;;16.73;12.23;;;;;;;9.34;nan;99218.38;5033604;28;20578;-78
2022/04/26 05:40:03;;;;;;;16.70;13.00;;;;;;;9.33;nan;99214.06;5034754;28;20218;-77
2022/04/26 05:42:35;;;;;;;13.23;10.80;;;;;;;9.34;nan;99218.38;5035891;28;20617;-78
2022/04/26 05:45:00;;;;;;;14.73;10.98;;;;;;;9.37;nan;99214.72;5035247;28;20214;-78
2022/04/26 05:47:26;;;;;;;14.13;11.07;;;;;;;9.39;nan;99210.22;5034205;28;20218;-77
2022/04/26 05:49:52;;;;;;;15.43;9.97;;;;;;;9.40;nan;99202.25;5036734;28;20206;-77
2022/04/26 05:52:18;;;;;;;12.40;9.70;;;;;;;9.41;nan;99208.34;5027436;28;20205;-77
2022/04/26 05:54:43;;;;;;;16.30;11.00;;;;;;;9.43;nan;99212.53;5031610;28;20206;-78
2022/04/26 05:57:09;;;;;;;19.27;12.37;;;;;;;9.44;nan;99214.22;5026256;28;20236;-77
2022/04/26 05:59:34;;;;;;;17.07;12.13;;;;;;;9.46;nan;99216.75;5030254;28;20285;-78
2022/04/26 06:02:00;;;;;;;17.20;12.95;;;;;;;9.49;nan;99212.13;5026984;28;20518;-77
2022/04/26 06:04:25;;;;;;;16.00;10.97;;;;;;;9.54;nan;99214.47;5029436;28;20244;-78
2022/04/26 06:06:51;;;;;;;12.80;10.20;;;;;;;9.56;nan;99211.72;5010305;28;20237;-77
2022/04/26 06:09:17;;;;;;;12.80;11.50;;;;;;;9.59;nan;99217.63;5032259;28;20241;-78
2022/04/26 06:11:42;;;;;;;15.43;12.30;;;;;;;9.62;nan;99224.47;5030216;28;20199;-78
2022/04/26 06:14:08;;;;;;;11.57;8.70;;;;;;;9.67;nan;99215.34;5030687;28;20324;-77
2022/04/26 06:16:34;;;;;;;14.80;11.47;;;;;;;9.73;nan;99216.72;5022653;28;20912;-77
2022/04/26 06:18:59;;;;;;;12.27;11.07;;;;;;;9.87;nan;99205.28;5037628;28;20222;-77
2022/04/26 06:21:24;;;;;;;15.23;11.57;;;;;;;10.06;nan;99212.75;5033147;28;20210;-78
2022/04/26 06:23:50;;;;;;;15.43;12.40;;;;;;;10.23;nan;99211.59;5035456;28;20232;-78
2022/04/26 06:26:15;;;;;;;13.93;11.03;;;;;;;10.45;nan;99226.75;5039341;28;20213;-78
2022/04/26 06:28:41;;;;;;;12.53;9.50;;;;;;;10.69;nan;99221.56;5045979;28;20281;-78
2022/04/26 06:31:06;;;;;;;13.63;10.97;;;;;;;10.81;nan;99223.34;5032042;28;20567;-77
2022/04/26 06:33:33;;;;;;;16.53;10.07;;;;;;;10.84;nan;99223.13;5035655;28;20200;-77
2022/04/26 06:35:59;;;;;;;16.83;10.57;;;;;;;10.79;nan;99226.06;5031177;28;20259;-77
2022/04/26 06:38:25;;;;;;;10.98;9.88;;;;;;;10.78;nan;99234.91;5029128;28;20225;-77
2022/04/26 06:40:51;;;;;;;17.70;11.90;;;;;;;10.77;nan;99230.59;5036504;28;20684;-77
2022/04/26 06:43:18;;;;;;;12.18;10.13;;;;;;;10.78;nan;99241.97;5021957;28;20607;-77
2022/04/26 06:45:46;;;;;;;14.20;12.07;;;;;;;10.78;nan;99240.16;5033412;28;20198;-77
2022/04/26 06:48:13;;;;;;;12.35;10.95;;;;;;;10.79;nan;99239.22;5038323;28;20201;-77
2022/04/26 06:50:40;;;;;;;11.32;9.82;;;;;;;10.87;nan;99243.94;5034926;28;20883;-78
2022/04/26 06:53:06;;;;;;;12.50;11.20;;;;;;;11.02;nan;99245.47;5036603;28;20220;-77
2022/04/26 06:55:32;;;;;;;14.38;12.48;;;;;;;11.22;nan;99248.47;5022649;28;20241;-77
2022/04/26 06:58:18;;;;;;;15.02;12.68;;;;;;;11.39;nan;99255.13;5162543;22;20238;-76
2022/04/26 07:00:46;;;;;;;14.95;11.90;;;;;;;11.60;nan;99258.81;5018116;28;20187;-75
2022/04/26 07:03:11;;;;;;;12.85;11.35;;;;;;;11.88;nan;99254.16;5019088;28;20201;-76
2022/04/26 07:05:37;;;;;;;12.27;9.87;;;;;;;12.08;nan;99250.91;5019911;28;20199;-76
2022/04/26 07:08:02;;;;;;;9.67;8.50;;;;;;;12.01;nan;99254.09;5019526;28;20770;-75
2022/04/26 07:10:30;;;;;;;13.67;9.73;;;;;;;11.85;nan;99254.38;5019899;28;20456;-76
2022/04/26 07:12:56;;;;;;;13.20;9.63;;;;;;;11.71;nan;99260.66;5021547;28;20596;-75
2022/04/26 07:15:22;;;;;;;10.70;9.60;;;;;;;11.49;nan;99262.22;5018281;28;20276;-75
2022/04/26 07:17:47;;;;;;;10.33;9.30;;;;;;;11.32;nan;99264.44;5020672;28;20230;-75
2022/04/26 07:20:12;;;;;;;12.53;10.20;;;;;;;11.23;nan;99263.28;5017892;28;20249;-75
2022/04/26 07:22:38;;;;;;;13.27;10.90;;;;;;;11.21;nan;99267.81;5017732;28;20216;-76
2022/04/26 07:25:05;;;;;;;15.97;10.50;;;;;;;11.24;nan;99263.19;5018831;28;20612;-75
2022/04/26 07:27:31;;;;;;;13.95;11.88;;;;;;;11.25;nan;99271.91;5018693;28;20547;-75
2022/04/26 07:29:57;;;;;;;13.50;11.23;;;;;;;11.25;nan;99271.91;5020395;28;20198;-75
2022/04/26 07:34:20;;;;;;;13.87;10.33;;;;;;;11.21;nan;99276.53;5018000;28;20259;-75
2022/04/26 07:35:12;;;;;;;12.85;10.07;;;;;;;11.19;nan;99281.06;5019852;28;20214;-76
2022/04/26 07:37:40;;;;;;;12.07;10.82;;;;;;;11.15;nan;99278.75;5019897;28;20229;-76
2022/04/26 07:40:08;;;;;;;12.07;10.88;;;;;;;11.10;nan;99286.13;5020392;28;20544;-76
2022/04/26 07:42:34;;;;;;;11.30;10.05;;;;;;;11.09;nan;99282.66;5020926;28;20333;-76
2022/04/26 07:45:00;;;;;;;12.90;10.60;;;;;;;11.27;nan;99294.50;5020352;28;20644;-76
2022/04/26 07:47:26;;;;;;;11.18;9.10;;;;;;;11.71;nan;99290.44;5020929;28;20226;-75
2022/04/26 07:49:53;;;;;;;10.52;9.50;;;;;;;12.33;nan;99293.78;5020224;28;20201;-76
2022/04/26 07:52:23;;;;;;;11.32;8.93;;;;;;;12.80;nan;99289.31;5002920;28;20689;-76
2022/04/26 07:54:50;;;;;;;10.00;9.00;;;;;;;13.31;nan;99298.53;5019868;28;20570;-75
2022/04/26 07:57:15;;;;;;;9.63;8.63;;;;;;;13.88;nan;99300.03;5022084;28;20242;-76
2022/04/26 07:59:41;;;;;;;11.37;10.30;;;;;;;14.34;nan;99294.41;5025448;28;20574;-76
2022/04/26 08:02:10;;;;;;;16.03;8.43;;;;;;;14.53;nan;99298.19;5024422;28;20247;-76
2022/04/26 08:04:36;;;;;;;9.90;8.95;;;;;;;14.54;nan;99303.31;5024585;28;20236;-75
2022/04/26 08:07:03;;;;;;;9.57;8.68;;;;;;;14.42;nan;99306.13;5025620;28;20213;-76
2022/04/26 08:09:29;;;;;;;12.13;8.25;;;;;;;14.71;nan;99304.53;5024135;28;20233;-76
2022/04/26 08:11:55;;;;;;;8.05;7.10;;;;;;;15.40;nan;99295.88;5019694;28;20293;-74
2022/04/26 08:14:20;;;;;;;10.17;8.07;;;;;;;16.09;nan;99291.50;5021692;28;20620;-77
2022/04/26 08:16:46;;;;;;;16.30;10.50;;;;;;;16.65;nan;99303.94;5020951;28;20202;-76
2022/04/26 08:19:12;;;;;;;13.33;9.13;;;;;;;17.01;nan;99293.50;5024330;28;20279;-77
2022/04/26 08:21:40;;;;;;;8.10;7.23;;;;;;;17.31;nan;99300.38;5023797;28;20305;-76
2022/04/26 08:29:33;;;;;;;8.73;7.90;;;;;;;17.77;nan;99305.66;5024557;28;20219;-76
2022/04/26 08:31:58;;;;;;;8.33;6.30;;;;;;;17.88;nan;99311.63;5023076;28;20184;-75
2022/04/26 08:34:24;;;;;;;6.70;5.03;;;;;;;17.62;nan;99314.16;5022397;28;20191;-76
2022/04/26 08:36:49;;;;;;;7.67;6.40;;;;;;;17.46;nan;99313.97;5022190;28;20525;-75
2022/04/26 08:39:15;;;;;;;8.10;6.63;;;;;;;17.20;nan;99320.00;5022899;28;20237;-74
2022/04/26 08:41:41;;;;;;;7.37;5.67;;;;;;;17.28;nan;99321.06;5021323;28;20385;-75
2022/04/26 08:44:12;;;;;;;5.93;4.70;;;;;;;17.25;nan;99323.03;5021403;28;20191;-74
2022/04/26 08:52:08;;;;;;;14.88;9.25;;;;;;;16.46;nan;99326.03;5020827;28;20212;-75
2022/04/26 08:54:34;;;;;;;10.57;6.80;;;;;;;16.46;nan;99330.50;5022238;28;20249;-76
2022/04/26 08:57:00;;;;;;;6.60;6.00;;;;;;;16.44;nan;99328.00;5019028;28;20291;-74
2022/04/26 08:59:27;;;;;;;6.07;5.47;;;;;;;16.54;nan;99333.28;5019260;28;20225;-74
2022/04/26 09:02:16;;;;;;;5.95;4.65;;;;;;;16.53;nan;99334.28;5019739;28;20394;-75
2022/04/26 09:04:42;;;;;;;5.43;4.45;;;;;;;16.43;nan;99331.63;5021298;28;20211;-76
2022/04/26 09:07:14;;;;;;;5.65;5.15;;;;;;;16.18;nan;99332.22;5019311;28;20271;-75
2022/04/26 09:09:41;;;;;;;5.03;4.60;;;;;;;15.90;nan;99334.72;5020392;28;20186;-76
2022/04/26 09:12:11;;;;;;;5.32;3.75;;;;;;;15.80;nan;99331.25;5021806;28;20220;-76
2022/04/26 09:14:41;;;;;;;4.68;4.28;;;;;;;16.10;nan;99331.09;5020791;28;20241;-75
2022/04/26 09:17:15;;;;;;;4.78;4.32;;;;;;;16.53;nan;99331.63;5019363;28;20221;-75
2022/04/26 09:19:55;;;;;;;6.50;4.85;;;;;;;16.88;nan;99332.84;5020371;28;20406;-76
2022/04/26 09:22:26;;;;;;;6.28;4.82;;;;;;;16.67;nan;99338.31;5020610;28;20546;-76
2022/04/26 09:24:54;;;;;;;5.30;4.78;;;;;;;16.43;nan;99342.25;5021997;28;20201;-75
2022/04/26 09:27:20;;;;;;;6.47;5.82;;;;;;;16.36;nan;99335.81;5003390;28;20251;-77
2022/04/26 09:29:47;;;;;;;5.87;4.90;;;;;;;16.41;nan;99338.88;5022272;28;20575;-75
2022/04/26 09:32:12;;;;;;;5.80;5.20;;;;;;;16.44;nan;99338.59;5005528;28;20215;-76
2022/04/26 09:34:38;;;;;;;5.77;5.27;;;;;;;16.57;nan;99338.31;5022972;28;20568;-73
2022/04/26 09:37:04;;;;;;;5.27;4.77;;;;;;;16.34;nan;99343.94;5024061;28;20462;-73
2022/04/26 09:39:30;;;;;;;5.63;5.13;;;;;;;16.01;nan;99341.69;5023176;28;20755;-76
2022/04/26 09:41:56;;;;;;;4.87;4.00;;;;;;;15.83;nan;99330.97;5022822;28;20207;-76
2022/04/26 09:44:34;;;;;;;7.47;6.50;;;;;;;15.50;nan;99343.56;5020187;28;20206;-73
2022/04/26 09:47:00;;;;;;;5.72;5.07;;;;;;;15.29;nan;99348.09;5024018;28;20248;-77
2022/04/26 09:49:26;;;;;;;7.07;6.43;;;;;;;15.13;nan;99338.81;5022221;28;20205;-76
2022/04/26 09:52:00;;;;;;;8.43;6.25;;;;;;;15.08;nan;99358.72;5023370;28;20579;-74
2022/04/26 09:54:26;;;;;;;8.88;7.93;;;;;;;15.31;nan;99346.97;5021745;28;20705;-76
2022/04/26 09:56:52;;;;;;;6.72;5.10;;;;;;;15.70;nan;99345.28;5021321;28;20241;-76
2022/04/26 09:59:29;;;;;;;6.07;5.43;;;;;;;16.12;nan;99345.06;5022219;28;20222;-73
2022/04/26 10:01:56;;;;;;;8.73;5.97;;;;;;;15.97;nan;99346.44;5023276;28;20232;-73
2022/04/26 10:04:24;;;;;;;9.23;4.35;;;;;;;15.74;nan;99367.03;5022896;28;20213;-73
2022/04/26 10:06:52;;;;;;;4.30;3.70;;;;;;;15.41;nan;99366.34;5022956;28;20216;-75
2022/04/26 10:09:18;;;;;;;4.30;3.90;;;;;;;14.94;nan;99373.13;5022219;28;20683;-75
2022/04/26 10:11:44;;;;;;;3.55;2.97;;;;;;;14.54;nan;99376.50;5026111;28;20202;-72
2022/04/26 10:14:11;;;;;;;5.17;4.50;;;;;;;14.23;nan;99383.44;5026064;28;20214;-76
2022/04/26 10:16:38;;;;;;;4.50;4.15;;;;;;;13.93;nan;99380.56;5026217;28;20206;-74
2022/04/26 10:19:09;;;;;;;4.40;4.00;;;;;;;13.58;nan;99390.47;5024921;28;20249;-76
2022/04/26 10:21:40;;;;;;;4.60;4.00;;;;;;;13.38;nan;99386.78;5020859;28;20638;-76
2022/04/26 10:24:19;;;;;;;6.25;5.00;;;;;;;13.27;nan;99403.44;5022858;28;20272;-74
2022/04/26 10:26:46;;;;;;;6.63;4.95;;;;;;;13.25;nan;99405.31;5023433;28;20209;-74
2022/04/26 10:29:14;;;;;;;6.72;4.85;;;;;;;13.38;nan;99410.50;5022301;28;20205;-76
2022/04/26 10:32:00;;;;;;;5.25;4.82;;;;;;;13.74;nan;99406.75;5020639;28;20515;-76
2022/04/26 10:34:29;;;;;;;5.28;4.78;;;;;;;13.91;nan;99411.53;5021839;28;20198;-74
2022/04/26 10:37:02;;;;;;;7.65;5.75;;;;;;;14.36;nan;99415.81;5020941;28;20195;-76
2022/04/26 10:39:40;;;;;;;5.10;4.60;;;;;;;15.00;nan;99409.63;5025416;28;20326;-73
2022/04/26 10:42:12;;;;;;;6.90;5.63;;;;;;;15.46;nan;99403.84;5021954;28;20206;-73
2022/04/26 10:44:42;;;;;;;5.63;5.03;;;;;;;15.49;nan;99405.38;5023105;28;20267;-73
2022/04/26 10:47:08;;;;;;;5.60;4.18;;;;;;;15.49;nan;99406.22;5023609;28;20674;-75
2022/04/26 10:49:38;;;;;;;5.63;4.80;;;;;;;15.36;nan;99410.06;5021377;28;20328;-76
2022/04/26 10:52:19;;;;;;;5.65;4.47;;;;;;;15.06;nan;99419.69;5022255;28;20729;-72
2022/04/26 10:57:25;;;;;;;5.55;4.55;;;;;;;14.58;nan;99423.69;5022784;28;20257;-74
2022/04/26 10:59:59;;;;;;;4.85;3.97;;;;;;;14.58;nan;99423.69;5022248;28;20589;-77
2022/04/26 11:02:27;;;;;;;3.17;2.88;;;;;;;14.67;nan;99430.00;5021245;28;20209;-75
2022/04/26 11:05:00;;;;;;;3.67;3.28;;;;;;;14.94;nan;99432.16;5022124;28;20245;-76
2022/04/26 11:07:27;;;;;;;3.40;3.08;;;;;;;15.12;nan;99428.88;5021396;28;20218;-75
2022/04/26 11:09:54;;;;;;;4.05;3.10;;;;;;;15.36;nan;99425.94;5020458;28;20578;-74
2022/04/26 11:12:24;;;;;;;3.97;3.53;;;;;;;15.54;nan;99426.19;5020265;28;20745;-74
2022/04/26 11:14:52;;;;;;;5.10;3.30;;;;;;;15.74;nan;99419.97;5020351;28;20587;-76
2022/04/26 11:17:19;;;;;;;3.17;2.88;;;;;;;15.91;nan;99421.16;5020999;28;20697;-77
2022/04/26 11:19:54;;;;;;;4.88;3.88;;;;;;;16.00;nan;99419.50;5019776;28;20210;-74
2022/04/26 11:22:20;;;;;;;3.38;3.08;;;;;;;16.07;nan;99410.88;5019655;28;20523;-75
2022/04/26 11:30:31;;;;;;;4.00;3.05;;;;;;;15.67;nan;99414.38;5019441;28;20210;-74
2022/04/26 11:33:05;;;;;;;3.30;3.00;;;;;;;15.73;nan;99417.50;5022973;28;20229;-76
2022/04/26 11:35:31;;;;;;;4.53;3.20;;;;;;;15.85;nan;99413.75;5025235;28;20970;-77
2022/04/26 11:38:10;;;;;;;3.80;3.10;;;;;;;16.08;nan;99417.84;5027641;28;20213;-74
2022/04/26 11:41:03;;;;;;;8.05;3.08;;;;;;;16.33;nan;99412.97;5027797;28;20504;-73
2022/04/26 11:43:31;;;;;;;2.95;2.65;;;;;;;16.53;nan;99405.88;5007971;28;20218;-76
2022/04/26 11:46:07;;;;;;;3.33;3.03;;;;;;;16.66;nan;99410.84;5025794;28;20567;-74
2022/04/26 11:48:34;;;;;;;3.25;2.95;;;;;;;16.57;nan;99416.03;5025488;28;20214;-73
2022/04/26 11:51:01;;;;;;;5.50;2.65;;;;;;;16.46;nan;99410.06;5024111;28;20206;-74
2022/04/26 11:53:29;;;;;;;2.90;2.70;;;;;;;16.47;nan;99409.06;5024766;28;20207;-75
2022/04/26 11:55:56;;;;;;;3.72;3.15;;;;;;;16.46;nan;99413.53;5025498;28;20201;-75
2022/04/26 11:58:33;;;;;;;3.60;2.65;;;;;;;16.46;nan;99420.66;5026429;28;20340;-76
2022/04/26 12:01:11;;;;;;;3.47;3.17;;;;;;;16.52;nan;99410.31;5026138;28;20223;-75
2022/04/26 12:03:51;;;;;;;3.42;2.95;;;;;;;16.50;nan;99412.28;5026653;28;20500;-76
2022/04/26 12:06:26;;;;;;;7.30;4.10;;;;;;;16.35;nan;99408.38;5026137;28;20214;-77
2022/04/26 12:08:56;;;;;;;3.67;2.95;;;;;;;16.27;nan;99409.06;5025446;28;20210;-75
2022/04/26 12:11:27;;;;;;;3.80;2.78;;;;;;;16.08;nan;99412.53;5024028;28;20195;-76
2022/04/26 12:14:16;;;;;;;3.45;2.90;;;;;;;15.82;nan;99427.25;5026718;28;20276;-73
2022/04/26 12:16:55;;;;;;;5.60;4.07;;;;;;;15.68;nan;99428.44;5023739;28;20499;-75
2022/04/26 12:19:34;;;;;;;4.65;3.22;;;;;;;15.56;nan;99435.66;5026358;28;20218;-76
2022/04/26 12:22:00;;;;;;;4.95;2.85;;;;;;;15.51;nan;99443.16;5025876;28;20553;-75
2022/04/26 12:24:29;;;;;;;3.25;2.97;;;;;;;15.52;nan;99444.81;5026765;28;20672;-74
2022/04/26 12:26:56;;;;;;;3.55;3.25;;;;;;;15.58;nan;99441.66;5028481;28;20293;-76
2022/04/26 12:29:39;;;;;;;4.00;3.50;;;;;;;15.65;nan;99448.09;5024211;28;20196;-75
2022/04/26 12:32:13;;;;;;;4.38;3.40;;;;;;;15.83;nan;99445.69;5027127;28;20559;-76
2022/04/26 12:34:57;;;;;;;3.60;2.60;;;;;;;16.10;nan;99436.25;5026170;28;20649;-76
2022/04/26 12:37:29;;;;;;;4.15;3.72;;;;;;;16.34;nan;99438.53;5026301;28;20229;-76
2022/04/26 12:40:04;;;;;;;4.00;3.53;;;;;;;16.48;nan;99437.25;5026610;28;20411;-76
2022/04/26 12:42:36;;;;;;;4.13;3.28;;;;;;;16.58;nan;99441.59;5026117;28;20439;-75
2022/04/26 12:45:06;;;;;;;4.43;3.42;;;;;;;16.68;nan;99440.75;5025380;28;20226;-73
2022/04/26 12:50:28;;;;;;;3.63;3.30;;;;;;;16.64;nan;99437.53;5026032;28;20298;-75
2022/04/26 12:53:07;;;;;;;4.55;4.15;;;;;;;16.71;nan;99429.84;5025840;28;20218;-72
2022/04/26 12:55:41;;;;;;;5.07;3.70;;;;;;;16.80;nan;99434.34;5006559;28;20207;-72
2022/04/26 12:58:12;;;;;;;4.38;3.55;;;;;;;16.89;nan;99437.97;5024704;28;20228;-76
2022/04/26 13:00:44;;;;;;;5.10;4.60;;;;;;;16.89;nan;99444.09;5025573;28;20672;-77
2022/04/26 13:03:17;;;;;;;4.95;3.78;;;;;;;16.79;nan;99441.44;5024843;28;20702;-75
2022/04/26 13:05:47;;;;;;;7.22;6.63;;;;;;;16.74;nan;99445.47;5025035;28;20221;-75
2022/04/26 13:08:17;;;;;;;6.60;5.90;;;;;;;16.57;nan;99439.06;5023658;28;20230;-73
2022/04/26 13:10:44;;;;;;;9.00;6.60;;;;;;;16.45;nan;99441.03;5024307;28;20314;-75
2022/04/26 13:13:11;;;;;;;7.43;6.47;;;;;;;16.40;nan;99440.59;5022781;28;20240;-75
2022/04/26 13:15:37;;;;;;;6.82;6.20;;;;;;;16.34;nan;99439.34;5021526;28;20210;-73
2022/04/26 13:18:03;;;;;;;6.97;6.22;;;;;;;16.03;nan;99437.78;5022717;28;20233;-76
2022/04/26 13:20:29;;;;;;;5.60;5.10;;;;;;;15.78;nan;99439.13;5021573;28;20225;-76
2022/04/26 13:22:55;;;;;;;6.37;5.77;;;;;;;15.77;nan;99430.34;5023946;28;20214;-76
2022/04/26 13:25:20;;;;;;;6.63;5.90;;;;;;;15.86;nan;99428.69;5021438;28;20285;-75
2022/04/26 13:27:47;;;;;;;4.90;4.50;;;;;;;16.02;nan;99422.84;5022521;28;20559;-73
2022/04/26 13:30:13;;;;;;;4.05;3.65;;;;;;;16.15;nan;99418.97;5023862;28;20683;-77
2022/04/26 13:32:39;;;;;;;4.65;4.00;;;;;;;16.34;nan;99425.28;5021291;28;20779;-77
2022/04/26 13:35:05;;;;;;;4.80;4.30;;;;;;;16.39;nan;99425.69;5022196;28;20286;-74
2022/04/26 13:37:31;;;;;;;5.28;4.00;;;;;;;16.29;nan;99427.50;5021440;28;20702;-77
2022/04/26 13:39:58;;;;;;;5.07;4.40;;;;;;;16.47;nan;99428.47;5023608;28;20217;-73
2022/04/26 13:42:25;;;;;;;4.30;3.55;;;;;;;16.74;nan;99425.09;5023952;28;20488;-76
2022/04/26 13:44:52;;;;;;;4.22;3.67;;;;;;;17.00;nan;99427.19;5020217;28;20586;-76
2022/04/26 13:47:19;;;;;;;4.55;4.03;;;;;;;17.25;nan;99412.44;5021349;28;20299;-73
2022/04/26 13:49:44;;;;;;;5.50;4.50;;;;;;;17.25;nan;99423.06;5023702;28;20210;-76
2022/04/26 13:52:10;;;;;;;4.07;3.67;;;;;;;17.15;nan;99419.63;5021434;28;20205;-76
2022/04/26 13:54:36;;;;;;;6.23;4.00;;;;;;;17.05;nan;99424.94;5023355;28;20841;-74
2022/04/26 13:57:02;;;;;;;4.25;3.85;;;;;;;16.98;nan;99432.63;5021709;28;20232;-77
2022/04/26 13:59:28;;;;;;;4.63;4.25;;;;;;;16.82;nan;99427.06;5004270;28;20627;-76
2022/04/26 14:01:55;;;;;;;4.33;3.93;;;;;;;16.73;nan;99428.72;5022813;28;20239;-76
2022/04/26 14:04:21;;;;;;;3.60;3.10;;;;;;;16.66;nan;99424.13;5023300;28;20358;-75
2022/04/26 14:06:47;;;;;;;3.97;3.53;;;;;;;16.59;nan;99426.50;5023629;28;20290;-73
2022/04/26 14:09:14;;;;;;;4.05;3.65;;;;;;;16.58;nan;99423.03;5024195;28;20591;-76
2022/04/26 14:11:40;;;;;;;5.72;3.33;;;;;;;16.62;nan;99430.69;5023129;28;20276;-74
2022/04/26 14:22:18;;;;;;;4.30;3.20;;;;;;;16.92;nan;99445.63;5024439;28;20213;-76
2022/04/26 14:24:44;;;;;;;4.53;3.47;;;;;;;16.95;nan;99435.56;5024571;28;20209;-74
2022/04/26 14:27:10;;;;;;;3.83;3.42;;;;;;;17.05;nan;99446.16;5023918;28;20224;-75
2022/04/26 14:29:35;;;;;;;5.90;4.23;;;;;;;16.85;nan;99441.84;5022911;28;20199;-75
2022/04/26 14:32:02;;;;;;;6.80;4.47;;;;;;;16.46;nan;99452.47;5023464;28;20634;-73
2022/04/26 14:34:27;;;;;;;5.22;4.72;;;;;;;16.15;nan;99456.06;5023272;28;20276;-75
2022/04/26 14:36:53;;;;;;;6.17;5.00;;;;;;;15.91;nan;99466.19;5021876;28;20673;-76
2022/04/26 14:39:19;;;;;;;6.90;6.20;;;;;;;15.59;nan;99474.28;5023100;28;20234;-76
2022/04/26 14:41:45;;;;;;;6.90;6.20;;;;;;;15.36;nan;99478.88;5022145;28;20985;-76
2022/04/26 14:44:10;;;;;;;9.37;5.80;;;;;;;15.23;nan;99484.41;5021444;28;20595;-75
2022/04/26 14:46:36;;;;;;;6.53;5.50;;;;;;;15.08;nan;99494.47;5002843;28;20440;-76
2022/04/26 14:49:03;;;;;;;5.20;4.70;;;;;;;14.96;nan;99492.84;5019778;28;20682;-76
2022/04/26 14:51:29;;;;;;;5.03;4.53;;;;;;;14.83;nan;99493.88;5020022;28;20314;-73
2022/04/26 14:53:55;;;;;;;5.80;5.20;;;;;;;14.93;nan;99493.97;5020163;28;20515;-74
2022/04/26 14:56:21;;;;;;;5.07;4.57;;;;;;;15.03;nan;99494.00;5019063;28;20465;-75
2022/04/26 14:58:49;;;;;;;4.30;3.90;;;;;;;14.99;nan;99489.97;5018280;28;20492;-76
2022/04/26 15:01:15;;;;;;;5.38;4.60;;;;;;;14.79;nan;99486.31;5019467;28;20206;-73
2022/04/26 15:03:40;;;;;;;5.85;5.25;;;;;;;14.63;nan;99481.44;5019272;28;20287;-75
2022/04/26 15:06:06;;;;;;;5.67;4.60;;;;;;;14.54;nan;99492.78;5020700;28;20707;-73
2022/04/26 15:11:15;;;;;;;5.05;4.28;;;;;;;14.62;nan;99492.16;5021319;28;20489;-75
2022/04/26 15:16:39;;;;;;;5.57;5.07;;;;;;;14.40;nan;99501.81;5017127;28;20488;-71
2022/04/26 15:19:11;;;;;;;5.00;4.38;;;;;;;14.52;nan;99500.84;5018634;28;20234;-73
2022/04/26 15:21:37;;;;;;;5.25;4.65;;;;;;;14.68;nan;99492.50;5018610;28;20214;-73
2022/04/26 15:24:03;;;;;;;4.18;3.63;;;;;;;14.62;nan;99497.47;5021468;28;20229;-74
2022/04/26 15:26:29;;;;;;;6.55;4.78;;;;;;;14.66;nan;99489.13;5019659;28;20209;-73
2022/04/26 15:28:56;;;;;;;4.53;3.88;;;;;;;14.78;nan;99493.41;5021504;28;20209;-74
2022/04/26 15:31:23;;;;;;;4.65;3.90;;;;;;;14.88;nan;99496.16;5022787;28;20235;-75
2022/04/26 15:33:50;;;;;;;4.60;4.15;;;;;;;14.92;nan;99497.56;5021161;28;20221;-74
2022/04/26 15:36:17;;;;;;;4.90;3.90;;;;;;;14.80;nan;99496.78;5019782;28;20713;-75
2022/04/26 15:38:43;;;;;;;6.35;4.63;;;;;;;14.65;nan;99500.69;5022787;28;20230;-75
2022/04/26 15:41:09;;;;;;;7.05;4.40;;;;;;;14.59;nan;99496.72;5020738;28;20210;-75
2022/04/26 15:43:37;;;;;;;4.90;3.70;;;;;;;14.63;nan;99496.47;5020533;28;20567;-73
2022/04/26 15:46:04;;;;;;;5.10;4.07;;;;;;;14.75;nan;99503.41;5023539;28;20292;-72
2022/04/26 15:48:29;;;;;;;4.07;3.65;;;;;;;14.82;nan;99502.78;5022745;28;20222;-76
2022/04/26 15:50:56;;;;;;;4.80;3.40;;;;;;;14.89;nan;99503.09;5022380;28;20202;-72
2022/04/26 15:53:21;;;;;;;5.55;5.05;;;;;;;14.93;nan;99503.66;5024146;28;20261;-75
2022/04/26 15:55:47;;;;;;;5.67;5.07;;;;;;;14.84;nan;99494.69;5022687;28;20242;-75
2022/04/26 15:58:13;;;;;;;5.27;4.30;;;;;;;14.68;nan;99500.41;5022084;28;20230;-74
2022/04/26 16:00:38;;;;;;;4.60;3.80;;;;;;;14.48;nan;99498.56;5004479;28;20198;-75
2022/04/26 16:03:04;;;;;;;6.27;5.63;;;;;;;14.47;nan;99504.78;5019499;28;20225;-76
2022/04/26 16:05:31;;;;;;;5.20;4.47;;;;;;;14.54;nan;99498.06;5004811;28;20227;-76